Check time and date!

LGTT 031300Z 02011G24KT 9999 SCT030 09/01 Q1021 RMK SCT080
TAF LGTT 030700Z 0309/0318 36010KT 9999 FEW020 BKN040 TEMPO 0310/0315 35015G25KT PROB30 TEMPO 0309/0313 5000 RA FEW018TCU BKN030
--------------------------------------
LGMG 031300Z 35010G24KT 9999 SCT020 10/02 Q1022 RMK SCT060
TAF LGMG 030700Z 0309/0318 33013KT 9999 FEW016 BKN040 TEMPO 0309/0315 34015G25KT PROB30 TEMPO 0309/0314 5000 RA FEW018TCU BKN030
--------------------------------------
LGTG 031250Z 33009KT 9999 FEW020 SCT030 09/00 Q1022 RMK FEW080
TAF LGTG 031100Z 0312/0321 32014KT 9999 SCT025
--------------------------------------
LGEL 031250Z 35014KT 9999 FEW020 SCT025 11/01 Q1022 RMK SCT070
TAF LGEL 031100Z 0312/0412 35014KT 9999 FEW025 SCT070 BECMG 0322/0324 24010KT PROB40 TEMPO 0409/0412 5000 RA SCT020 BKN070
--------------------------------------
LGAV 031250Z 34011KT 9999 SCT025 10/M01 Q1021 RMK FEW070 FEW180 NOSIG
TAF LGAV 031100Z 0312/0412 35014KT 9999 FEW025 SCT070 PROB30 TEMPO 0312/0314 5000 RA SCT020 BKN070 BECMG 0320/0322 24010KT PROB40 TEMPO 0409/0412 5000 RA SCT020 BKN070
--------------------------------------
LGAT 031300Z AUTO 01005KT 280V160 //// // ////// 12/02 Q1021 RE//
--------------------------------------
METAR LGAD 031250Z 33008KT 9999 FEW030 13/06 Q1022
METAR LGAL 031250Z 23008KT 9999 SCT025 10/01 Q1021
METAR LGAV 031250Z 34011KT 9999 SCT025 10/M01 Q1021 NOSIG
METAR LGBL 031250Z 29008KT 9999 SCT030 12/00 Q1023
METAR LGEL 031250Z 35014KT 9999 FEW020 SCT025 11/01 Q1022
METAR LGHI 031250Z 03014G24KT 9999 FEW020 BKN025 08/03 Q1019
METAR LGIO 031250Z AUTO 31007KT 270V340 //// // ////// 11/M05 Q1022 RE//
METAR LGIR 031250Z 31013KT 9999 FEW018 SCT025 16/09 Q1020 NOSIG
METAR LGKF 031250Z 33014KT 9999 SCT030 15/06 Q1022
METAR LGKL 031250Z 01007KT 9999 FEW030 13/06 Q1022
METAR LGKO 031250Z /////KT 9999 FEW018TCU SCT020 15/06 Q1017
METAR LGKP 031250Z 26013KT 9999 SCT020 14/08 Q1018
METAR LGKR 031250Z 33009KT 9999 SCT020 14/00 Q1023 NOSIG
METAR LGKV 031250Z 24011KT 9999 FEW025 12/M05 Q1020
METAR LGKZ 031250Z AUTO 34006KT 280V010 //// // ////// 07/M09 Q1022 RE//
METAR LGLM 031250Z 06004KT 9999 FEW025 09/02 Q1021
METAR LGLR 031250Z 33005KT 9999 FEW030 12/M03 Q1022 BLU
METAR LGMK 031250Z 35022G32KT 9999 SCT020 11/05 Q1020
METAR LGMT 031250Z 34005KT 9999 SCT025 08/03 Q1021
METAR LGNX 031150Z 35014G24KT 9999 FEW025 SCT030 13/06 Q1020
METAR LGPA 031250Z 35018KT 9999 FEW018TCU SCT025 13/06 Q1020
METAR LGPZ 031250Z VRB03KT 9999 FEW020 14/04 Q1022
METAR LGRP 031250Z 24013KT 9999 FEW016CB BKN018 15/06 Q1016 NOSIG
METAR LGRX 031250Z VRB03KT 9999 FEW020 SCT070 13/04 Q1022
METAR LGSA 031250Z 30018KT 9999 FEW020 14/06 Q1019
METAR LGSK 031250Z 34007KT 9999 SCT018 11/03 Q1022
METAR LGSM 031250Z 36007KT 9999 FEW018TCU SCT025 09/05 Q1018
METAR LGSO 031250Z AUTO 34015KT //// -RA ////// 12/04 Q1020 RE//
METAR LGSR 031250Z 32015KT 9999 SCT025 15/03 Q1019
METAR LGSY 031250Z 02008KT 9999 FEW012 SCT025 09/04 Q1022 RMK FEW080 FEW180 BLU
METAR LGTG 031250Z 33009KT 9999 FEW020 SCT030 09/00 Q1022 RMK FEW080 BLU
METAR LGTS 031250Z 33017KT 9999 FEW025 11/M01 Q1023 NOSIG
METAR LGZA 031250Z VRB03KT 9999 SCT020 SCT070 13/08 Q1022

--------------------------------------
TAF LGAD 031100Z 0312/0321 30012KT 9999 SCT020 SCT080 BECMG 0314/0316 SCT020
TAF LGAL 031100Z 0312/0321 VRB05KT 9999 SCT025 SCT060 PROB30 TEMPO 0312/0315 5000 RA FEW018TCU SCT025 BKN060
TAF LGAV 031100Z 0312/0412 35014KT 9999 FEW025 SCT070 PROB30 TEMPO 0312/0314 5000 RA SCT020 BKN070 BECMG 0320/0322 24010KT PROB40 TEMPO 0409/0412 5000 RA SCT020 BKN070
TAF LGBL 031100Z 0312/0321 29012KT 9999 SCT020
TAF LGEL 031100Z 0312/0412 35014KT 9999 FEW025 SCT070 BECMG 0322/0324 24010KT PROB40 TEMPO 0409/0412 5000 RA SCT020 BKN070
TAF LGHI 031100Z 0312/0321 01014KT 9999 FEW018 BKN025 PROB40 TEMPO 0312/0315 5000 RA FEW018TCU BKN020 PROB40 TEMPO 0312/0314 4000 TSRA FEW010 FEW018CB BKN020
TAF LGIO 031100Z 0312/0321 VRB03KT 9999 FEW025
TAF LGIR 031100Z 0312/0412 33012KT 9999 SCT020 PROB40 TEMPO 0314/0322 5000 RA FEW018TCU SCT020 BKN070 PROB30 TEMPO 0314/0320 4000 TSRA FEW018CB BKN025 BKN070
TAF LGKC 031100Z 0312/0321 30015KT 9999 FEW018 SCT020 BECMG 0313/0315 03014KT PROB40 TEMPO 0312/0316 5000 RA FEW018TCU BKN020 PROB30 TEMPO 0312/0315 4000 TSRA FEW010 FEW018CB BKN025
TAF LGKF 031100Z 0312/0321 33014KT 9999 FEW018 SCT080 TEMPO 0312/0315 34016G26KT PROB30 TEMPO 0312/0314 5000 RA FEW018TCU SCT025 BKN070
TAF LGKL 031100Z 0312/0321 34012KT 9999 SCT020 SCT080 PROB40 TEMPO 0312/0313 5000 RA SCT025 BKN080 PROB30 TEMPO 0312/0313 3000 SHRA FEW018TCU SCT025 BKN080 TEMPO 0312/0314 34014G24KT BECMG 0315/0317 SCT020
TAF LGKO 031100Z 0312/0412 27010KT 9999 FEW018 BKN020 BECMG 0314/0316 34012KT TEMPO 0319/0322 35018G28KT PROB40 TEMPO 0312/0321 5000 RA FEW010 FEW018TCU BKN020 PROB30 TEMPO 0313/0320 4000 TSRA SCT010 FEW018CB BKN020
TAF LGKP 031100Z 0312/0321 35015G25KT 9999 FEW008 BKN025 PROB40 TEMPO 0312/0315 5000 RA SCT018 BKN020 PROB30 TEMPO 0312/0315 3000 TSRA FEW015CB SCT018 BKN035
TAF LGKR 031100Z 0312/0412 33013KT 9999 FEW020 BECMG 0323/0401 VRB03KT FEW020 BKN070 PROB40 TEMPO 0405/0412 5000 RA FEW018TCU SCT025 BKN070 PROB30 TEMPO 0409/0412 4000 TSRA FEW018CB BKN025 BKN070
TAF LGKV 031100Z 0312/0412 VRB03KT 9999 FEW025 SCT080 BECMG 0320/0322 SCT025 BKN080
TAF LGLM 031100Z 0312/0321 04012KT 9999 FEW018 SCT025
TAF LGLR 031100Z 0312/0321 32012KT 9999 SCT025
TAF LGMK 031100Z 0312/0321 35022G32KT 9999 FEW018 BKN025 PROB40 TEMPO 0312/0318 5000 RA FEW018TCU BKN020 PROB30 TEMPO 0312/0316 4000 TSRA SCT010 FEW018CB BKN020
TAF LGMT 031100Z 0312/0321 01010KT 9999 FEW018 SCT025 PROB30 TEMPO 0312/0314 5000 RA FEW018TCU BKN025
TAF LGPZ 031100Z 0312/0412 29010KT 9999 FEW020 BECMG 0403/0405 06010KT FEW020 BKN070 PROB40 TEMPO 0406/0412 5000 RA FEW018TCU SCT025 BKN070 PROB30 TEMPO 0409/0412 4000 TSRA FEW018CB BKN025 BKN070
TAF LGRP 031100Z 0312/0412 VRB03KT 9999 FEW016 SCT020 BECMG 0313/0315 30013KT PROB40 TEMPO 0312/0322 5000 RA FEW010 FEW018TCU BKN020 PROB30 TEMPO 0313/0320 4000 TSRA SCT010 FEW018CB BKN020
TAF LGRX 031100Z 0312/0321 29012KT 9999 SCT020 SCT080 BECMG 0314/0316 SCT020
TAF LGSA 031100Z 0312/0412 29014KT 9999 SCT020 BECMG 0316/0318 35010KT BECMG 0406/0408 26018G28KT PROB40 TEMPO 0314/0320 5000 RA FEW018TCU SCT020 BKN070 PROB30 TEMPO 0314/0318 4000 TSRA FEW018CB BKN025 BKN070
TAF LGSK 031100Z 0312/0321 32016KT 9999 SCT018 TEMPO 0312/0315 32016G26KT BECMG 0317/0319 25010KT
TAF LGSM 031100Z 0312/0321 36012KT 9999 FEW018 BKN025 PROB40 TEMPO 0312/0317 5000 RA FEW018TCU BKN020 PROB40 TEMPO 0312/0316 4000 TSRA FEW010 FEW018CB BKN020
TAF LGSR 031100Z 0312/0412 29010KT 9999 SCT020 PROB40 TEMPO 0313/0318 5000 RA FEW018TCU BKN020 PROB30 TEMPO 0314/0318 4000 TSRA FEW010 FEW018CB BKN020 BECMG 0312/0314 35017KT BECMG 0403/0405 26010KT TEMPO 0408/0412 27018G30KT
TAF LGST 031100Z 0312/0321 30012KT 9999 SCT020 SCT080 PROB40 TEMPO 0312/0321 5000 RA FEW018TCU BKN020 PROB30 TEMPO 0312/0321 4000 TSRA FEW010 FEW018CB BKN020 BKN080 BECMG 0313/0315 31018G28KT
TAF LGSY 031100Z 0312/0321 31014KT 9999 FEW018 BKN025 PROB40 TEMPO 0312/0313 5000 RA BECMG 0314/0316 SCT020
TAF LGTG 031100Z 0312/0321 32014KT 9999 SCT025
TAF LGTL 031100Z 0312/0321 35012KT 9999 SCT020 SCT080 TEMPO 0312/0315 35012G22KT
TAF LGTS 031100Z 0312/0412 34017KT 9999 FEW025 BECMG 0318/0320 VRB03KT SCT030
TAF LGZA 031100Z 0312/0321 34014KT 9999 FEW018 SCT080 TEMPO 0312/0315 35014G24KT PROB30 TEMPO 0312/0314 5000 RA FEW018TCU SCT025 BKN070